createdAt,value
2023-04-28T00:04:57.167Z,13.68
2023-04-28T00:10:18.871Z,13.63
2023-04-28T00:15:11.272Z,13.55
2023-04-28T00:20:11.204Z,13.48
2023-04-28T00:25:11.118Z,13.45
2023-04-28T00:30:11.066Z,13.43
2023-04-28T00:35:11.048Z,13.42
2023-04-28T00:40:10.975Z,13.38
2023-04-28T00:45:10.859Z,13.33
2023-04-28T00:50:10.827Z,13.25
2023-04-28T00:55:10.741Z,13.16
2023-04-28T01:00:10.690Z,13.08
2023-04-28T01:05:10.656Z,12.99
2023-04-28T01:10:10.556Z,12.89
2023-04-28T01:15:10.461Z,12.80
2023-04-28T01:20:10.436Z,12.71
2023-04-28T01:25:10.338Z,12.62
2023-04-28T01:30:10.296Z,12.50
2023-04-28T01:35:10.202Z,12.39
2023-04-28T01:40:10.162Z,12.30
2023-04-28T01:45:10.068Z,12.25
2023-04-28T01:50:10.038Z,12.24
2023-04-28T01:55:09.932Z,12.25
2023-04-28T02:00:09.890Z,12.29
2023-04-28T02:05:09.801Z,12.33
2023-04-28T02:10:09.837Z,12.38
2023-04-28T02:15:09.680Z,12.42
2023-04-28T02:20:09.611Z,12.45
2023-04-28T02:25:09.554Z,12.46
2023-04-28T02:30:09.506Z,12.44
2023-04-28T02:35:09.419Z,12.41
2023-04-28T02:40:09.363Z,12.36
2023-04-28T02:45:09.262Z,12.32
2023-04-28T02:50:09.211Z,12.26
2023-04-28T02:55:09.138Z,12.21
2023-04-28T03:00:09.091Z,12.17
2023-04-28T03:05:08.995Z,12.13
2023-04-28T03:10:08.944Z,12.10
2023-04-28T03:15:08.874Z,12.07
2023-04-28T03:20:08.821Z,12.05
2023-04-28T03:25:08.739Z,12.03
2023-04-28T03:30:08.726Z,12.01
2023-04-28T03:35:08.609Z,11.99
2023-04-28T03:40:08.548Z,11.97
2023-04-28T03:45:08.478Z,11.95
2023-04-28T03:50:08.428Z,11.93
2023-04-28T03:55:08.353Z,11.92
2023-04-28T04:00:08.294Z,11.91
2023-04-28T04:05:08.389Z,11.92
2023-04-28T04:10:08.160Z,11.93
2023-04-28T04:15:40.451Z,11.96
2023-04-28T04:20:32.852Z,11.97
2023-04-28T04:25:32.773Z,11.97
2023-04-28T04:30:32.708Z,11.98
2023-04-28T04:35:32.674Z,12.00
2023-04-28T04:40:32.563Z,12.03
2023-04-28T04:45:32.561Z,12.05
2023-04-28T04:50:33.125Z,12.08
2023-04-28T04:55:32.422Z,12.11
2023-04-28T05:00:32.329Z,12.15
2023-04-28T05:05:32.441Z,12.18
2023-04-28T05:10:32.150Z,12.20
2023-04-28T05:15:32.106Z,12.20
2023-04-28T05:20:32.069Z,12.20
2023-04-28T05:25:31.999Z,12.21
2023-04-28T05:30:31.952Z,12.23
2023-04-28T05:35:31.867Z,12.26
2023-04-28T05:40:31.789Z,12.30
2023-04-28T05:45:31.790Z,12.34
2023-04-28T05:50:31.645Z,12.37
2023-04-28T05:55:31.654Z,12.38
2023-04-28T06:00:31.537Z,12.40
2023-04-28T06:05:31.914Z,12.41
2023-04-28T06:10:31.396Z,12.42
2023-04-28T06:15:31.334Z,12.42
2023-04-28T06:20:31.236Z,12.41
2023-04-28T06:25:31.190Z,12.42
2023-04-28T06:30:31.121Z,12.46
2023-04-28T06:35:31.063Z,12.51
2023-04-28T06:40:31.014Z,12.54
2023-04-28T06:45:30.901Z,12.59
2023-04-28T06:50:30.853Z,12.64
2023-04-28T06:55:30.797Z,12.69
2023-04-28T07:00:30.743Z,12.83
2023-04-28T07:05:30.648Z,13.13
2023-04-28T07:10:30.596Z,13.44
2023-04-28T07:15:30.533Z,13.81
2023-04-28T07:20:30.480Z,14.11
2023-04-28T07:25:30.391Z,14.28
2023-04-28T07:30:30.414Z,14.44
2023-04-28T07:35:30.285Z,14.62
2023-04-28T07:40:30.236Z,14.81
2023-04-28T07:45:30.111Z,15.00
2023-04-28T07:50:30.094Z,15.12
2023-04-28T07:55:29.976Z,15.17
2023-04-28T08:00:29.923Z,15.20
2023-04-28T08:05:29.917Z,15.26
2023-04-28T08:10:29.792Z,15.31
2023-04-28T08:15:29.763Z,15.31
2023-04-28T08:20:29.683Z,15.33
2023-04-28T08:25:29.583Z,15.42
2023-04-28T08:30:29.550Z,15.81
2023-04-28T08:35:29.425Z,16.50
2023-04-28T08:40:29.407Z,17.46
2023-04-28T08:45:29.320Z,18.44
2023-04-28T08:50:29.270Z,19.12
2023-04-28T08:55:29.204Z,19.56
2023-04-28T09:00:29.144Z,19.98
2023-04-28T09:05:29.416Z,20.37
2023-04-28T09:10:29.015Z,21.23
2023-04-28T09:15:29.860Z,22.41
2023-04-28T09:20:28.874Z,23.08
2023-04-28T09:25:28.778Z,23.60
2023-04-28T09:30:28.755Z,24.26
2023-04-28T09:35:28.671Z,25.10
2023-04-28T09:40:28.613Z,25.29
2023-04-28T09:45:30.465Z,24.85
2023-04-28T09:50:28.510Z,25.60
2023-04-28T09:55:28.434Z,26.34
2023-04-28T10:00:28.350Z,26.49
2023-04-28T10:05:28.454Z,26.67
2023-04-28T10:10:28.221Z,26.54
2023-04-28T10:15:28.134Z,26.18
2023-04-28T10:20:28.081Z,25.78
2023-04-28T10:25:28.031Z,25.31
2023-04-28T10:30:29.675Z,24.91
2023-04-28T10:35:27.862Z,25.14
2023-04-28T10:40:27.817Z,27.04
2023-04-28T10:45:27.772Z,29.49
2023-04-28T10:50:38.375Z,31.78
2023-04-28T10:55:28.650Z,33.96
2023-04-28T11:00:27.564Z,35.49
2023-04-28T11:05:27.505Z,36.07
2023-04-28T11:10:27.451Z,35.14
2023-04-28T11:15:27.348Z,33.85
2023-04-28T11:20:27.317Z,33.71
2023-04-28T11:25:27.259Z,34.40
2023-04-28T11:30:27.180Z,34.95
2023-04-28T11:35:27.091Z,34.84
2023-04-28T11:40:27.046Z,34.98
2023-04-28T11:45:26.946Z,35.56
2023-04-28T11:50:26.878Z,35.65
2023-04-28T11:55:26.848Z,35.10
2023-04-28T12:00:26.773Z,34.63
2023-04-28T12:05:26.708Z,33.76
2023-04-28T12:10:26.642Z,32.32
2023-04-28T12:15:26.550Z,31.00
2023-04-28T12:20:26.550Z,29.79
2023-04-28T12:25:26.396Z,29.36
2023-04-28T12:30:26.374Z,29.44
2023-04-28T12:35:26.306Z,29.08
2023-04-28T12:40:26.309Z,28.29
2023-04-28T12:45:26.176Z,27.41
2023-04-28T12:50:26.121Z,26.48
2023-04-28T12:55:26.052Z,25.45
2023-04-28T13:00:26.002Z,24.60
2023-04-28T13:05:25.913Z,24.10
2023-04-28T13:10:25.854Z,24.02
2023-04-28T13:15:25.792Z,24.22
2023-04-28T13:20:25.743Z,24.74
2023-04-28T13:25:25.647Z,25.50
2023-04-28T13:30:25.690Z,26.15
2023-04-28T13:35:25.538Z,26.62
2023-04-28T13:40:25.526Z,26.84
2023-04-28T13:45:25.384Z,27.18
2023-04-28T13:50:25.320Z,27.52
2023-04-28T13:55:25.260Z,27.61
2023-04-28T14:00:25.199Z,27.70
2023-04-28T14:05:25.113Z,27.41
2023-04-28T14:10:25.029Z,26.70
2023-04-28T14:15:24.982Z,25.93
2023-04-28T14:20:26.810Z,25.15
2023-04-28T14:25:24.864Z,24.37
2023-04-28T14:30:24.789Z,23.60
2023-04-28T14:35:24.741Z,22.83
2023-04-28T14:40:24.739Z,22.14
2023-04-28T14:45:24.606Z,21.57
2023-04-28T14:50:24.563Z,21.15
2023-04-28T14:55:24.467Z,20.83
2023-04-28T15:00:24.461Z,20.55
2023-04-28T15:05:24.331Z,20.46
2023-04-28T15:10:24.260Z,20.46
2023-04-28T15:15:24.277Z,20.45
2023-04-28T15:20:24.185Z,20.56
2023-04-28T15:25:24.078Z,20.98
2023-04-28T15:30:23.996Z,21.60
2023-04-28T15:35:23.941Z,22.26
2023-04-28T15:40:24.112Z,22.85
2023-04-28T15:45:23.781Z,23.07
2023-04-28T15:50:23.718Z,22.84
2023-04-28T15:55:23.655Z,22.43
2023-04-28T16:00:23.962Z,22.22
2023-04-28T16:05:23.520Z,22.34
2023-04-28T16:10:23.542Z,22.29
2023-04-28T16:15:23.445Z,21.99
2023-04-28T16:20:23.305Z,21.70
2023-04-28T16:25:23.322Z,21.42
2023-04-28T16:30:23.188Z,21.33
2023-04-28T16:35:23.133Z,21.43
2023-04-28T16:40:23.056Z,21.41
2023-04-28T16:45:23.008Z,21.38
2023-04-28T16:50:22.921Z,21.45
2023-04-28T16:55:22.888Z,21.39
2023-04-28T17:00:22.794Z,21.25
2023-04-28T17:05:22.752Z,21.03
2023-04-28T17:10:22.724Z,20.78
2023-04-28T17:15:22.622Z,20.49
2023-04-28T17:20:22.552Z,20.14
2023-04-28T17:25:22.467Z,19.88
2023-04-28T17:30:22.405Z,19.74
2023-04-28T17:35:22.349Z,19.67
2023-04-28T17:40:22.272Z,19.64
2023-04-28T17:45:22.296Z,19.60
2023-04-28T17:50:22.176Z,19.50
2023-04-28T17:55:22.081Z,19.36
2023-04-28T18:00:22.003Z,19.11
2023-04-28T18:05:21.949Z,18.78
2023-04-28T18:10:21.894Z,18.45
2023-04-28T18:15:21.803Z,18.21
2023-04-28T18:20:21.862Z,18.02
2023-04-28T18:25:21.690Z,17.75
2023-04-28T18:30:21.700Z,17.41
2023-04-28T18:35:21.542Z,17.07
2023-04-28T18:40:21.472Z,16.75
2023-04-28T18:45:21.430Z,16.46
2023-04-28T18:50:21.350Z,16.21
2023-04-28T18:55:21.289Z,15.98
2023-04-28T19:00:21.234Z,15.78
2023-04-28T19:05:21.165Z,15.61
2023-04-28T19:10:21.179Z,15.46
2023-04-28T19:15:21.104Z,15.32
2023-04-28T19:20:20.930Z,15.18
2023-04-28T19:25:20.870Z,15.07
2023-04-28T19:30:20.829Z,14.96
2023-04-28T19:35:20.736Z,14.86
2023-04-28T19:40:20.688Z,14.76
2023-04-28T19:45:20.617Z,14.67
2023-04-28T19:50:20.554Z,14.59
2023-04-28T19:55:20.498Z,14.51
2023-04-28T20:00:20.448Z,14.44
2023-04-28T20:05:20.341Z,14.37
2023-04-28T20:10:20.264Z,14.30
2023-04-28T20:15:20.223Z,14.23
2023-04-28T20:20:20.102Z,14.16
2023-04-28T20:25:20.083Z,14.09
2023-04-28T20:30:20.001Z,14.03
2023-04-28T20:35:19.954Z,13.98
2023-04-28T20:40:19.851Z,13.92
2023-04-28T20:45:19.854Z,13.85
2023-04-28T20:50:19.758Z,13.78
2023-04-28T20:55:19.672Z,13.69
2023-04-28T21:00:19.595Z,13.60
2023-04-28T21:05:19.578Z,13.51
2023-04-28T21:10:19.469Z,13.44
2023-04-28T21:15:19.457Z,13.37
2023-04-28T21:20:19.346Z,13.31
2023-04-28T21:25:19.284Z,13.26
2023-04-28T21:30:19.212Z,13.20
2023-04-28T21:35:19.172Z,13.15
2023-04-28T21:40:19.811Z,13.10
2023-04-28T21:45:19.069Z,13.05
2023-04-28T21:50:18.977Z,13.02
2023-04-28T21:55:18.873Z,13.01
2023-04-28T22:00:18.808Z,13.01
2023-04-28T22:05:18.820Z,13.01
2023-04-28T22:10:18.722Z,13.01
2023-04-28T22:15:18.651Z,13.01
2023-04-28T22:20:18.585Z,13.00
2023-04-28T22:25:18.496Z,12.96
2023-04-28T22:30:18.426Z,12.89
2023-04-28T22:35:18.355Z,12.82
2023-04-28T22:40:18.330Z,12.73
2023-04-28T22:45:18.234Z,12.65
2023-04-28T22:50:18.129Z,12.60
2023-04-28T22:55:18.121Z,12.61
2023-04-28T23:00:18.026Z,12.64
2023-04-28T23:05:17.978Z,12.69
2023-04-28T23:10:17.880Z,12.74
2023-04-28T23:15:17.812Z,12.79
2023-04-28T23:20:17.875Z,12.84
2023-04-28T23:25:17.661Z,12.90
2023-04-28T23:30:17.974Z,12.97
2023-04-28T23:35:17.587Z,13.02
2023-04-28T23:40:17.493Z,13.08
2023-04-28T23:45:17.414Z,13.13
2023-04-28T23:50:17.380Z,13.17
2023-04-28T23:55:17.299Z,13.22
